createdAt,value
2019-04-30T00:00:09.079Z,15.77
2019-04-30T00:03:06.819Z,15.13
2019-04-30T00:05:39.105Z,15.87
2019-04-30T00:08:10.934Z,16.33
2019-04-30T00:10:42.725Z,17.23
2019-04-30T00:13:20.492Z,16.77
2019-04-30T00:15:52.824Z,16.57
2019-04-30T00:18:21.990Z,15.37
2019-04-30T00:20:55.356Z,15.30
2019-04-30T00:23:30.640Z,15.73
2019-04-30T00:26:06.015Z,16.23
2019-04-30T00:28:35.417Z,15.90
2019-04-30T00:31:07.737Z,16.00
2019-04-30T00:33:39.519Z,15.83
2019-04-30T00:36:12.031Z,15.07
2019-04-30T00:38:44.808Z,16.00
2019-04-30T00:41:16.938Z,16.07
2019-04-30T00:43:50.783Z,17.67
2019-04-30T00:46:25.465Z,18.00
2019-04-30T00:49:08.551Z,16.13
2019-04-30T00:51:29.628Z,17.03
2019-04-30T00:54:01.475Z,15.50
2019-04-30T00:56:33.289Z,16.93
2019-04-30T00:59:07.010Z,16.10
2019-04-30T01:01:53.124Z,16.73
2019-04-30T01:04:30.251Z,17.07
2019-04-30T01:07:07.180Z,16.53
2019-04-30T01:09:39.612Z,17.47
2019-04-30T01:12:09.395Z,16.47
2019-04-30T01:14:41.298Z,17.07
2019-04-30T01:17:13.093Z,17.77
2019-04-30T01:19:45.898Z,18.97
2019-04-30T01:22:21.270Z,18.97
2019-04-30T01:24:52.274Z,18.20
2019-04-30T01:27:24.183Z,17.57
2019-04-30T01:29:56.109Z,17.93
2019-04-30T01:32:28.509Z,18.07
2019-04-30T01:35:00.565Z,17.47
2019-04-30T01:37:32.907Z,18.60
2019-04-30T01:40:10.637Z,17.87
2019-04-30T01:42:42.925Z,17.43
2019-04-30T01:45:12.662Z,17.37
2019-04-30T01:47:44.623Z,17.80
2019-04-30T01:50:16.492Z,17.60
2019-04-30T01:52:54.437Z,18.33
2019-04-30T01:55:38.969Z,18.40
2019-04-30T01:58:30.256Z,18.23
2019-04-30T02:01:06.617Z,16.37
2019-04-30T02:03:40.077Z,17.10
2019-04-30T02:06:12.200Z,17.90
2019-04-30T02:08:44.025Z,17.63
2019-04-30T02:11:15.787Z,18.43
2019-04-30T02:13:49.179Z,18.60
2019-04-30T02:16:21.310Z,17.20
2019-04-30T02:18:53.302Z,19.17
2019-04-30T02:21:25.103Z,18.30
2019-04-30T02:23:58.806Z,16.73
2019-04-30T02:26:30.370Z,17.10
2019-04-30T02:29:02.145Z,16.07
2019-04-30T02:31:33.962Z,16.03
2019-04-30T02:34:21.831Z,16.00
2019-04-30T02:37:06.094Z,16.30
2019-04-30T02:39:40.333Z,16.60
2019-04-30T02:42:13.973Z,16.70
2019-04-30T02:44:50.398Z,16.67
2019-04-30T02:47:25.342Z,16.13
2019-04-30T02:50:14.392Z,16.17
2019-04-30T02:52:37.234Z,16.43
2019-04-30T02:55:13.576Z,16.20
2019-04-30T02:57:45.340Z,15.50
2019-04-30T03:00:20.726Z,17.07
2019-04-30T03:02:52.844Z,15.47
2019-04-30T03:05:24.705Z,16.00
2019-04-30T03:07:56.492Z,15.53
2019-04-30T03:10:30.394Z,15.87
2019-04-30T03:13:01.784Z,15.77
2019-04-30T03:15:33.745Z,15.23
2019-04-30T03:18:26.355Z,14.67
2019-04-30T03:21:11.670Z,16.50
2019-04-30T03:23:43.822Z,15.97
2019-04-30T03:26:15.641Z,13.93
2019-04-30T03:28:49.303Z,15.13
2019-04-30T03:31:22.447Z,15.43
2019-04-30T03:33:54.465Z,14.57
2019-04-30T03:36:26.511Z,15.57
2019-04-30T03:39:00.031Z,14.40
2019-04-30T03:41:33.607Z,14.90
2019-04-30T03:44:20.917Z,13.93
2019-04-30T03:46:40.550Z,14.33
2019-04-30T03:49:13.414Z,13.97
2019-04-30T03:51:46.184Z,13.80
2019-04-30T03:54:19.269Z,13.70
2019-04-30T03:56:53.093Z,13.63
2019-04-30T03:59:24.862Z,13.90
2019-04-30T04:02:16.502Z,13.40
2019-04-30T04:04:52.903Z,13.37
2019-04-30T04:07:49.815Z,13.23
2019-04-30T04:10:45.276Z,13.13
2019-04-30T04:13:19.626Z,11.60
2019-04-30T04:15:50.594Z,12.50
2019-04-30T04:18:22.414Z,12.87
2019-04-30T04:21:07.680Z,13.93
2019-04-30T04:23:32.308Z,12.80
2019-04-30T04:26:01.314Z,12.63
2019-04-30T04:28:33.085Z,12.63
2019-04-30T04:31:04.902Z,12.00
2019-04-30T04:33:39.393Z,12.77
2019-04-30T04:36:10.240Z,13.07
2019-04-30T04:38:42.122Z,12.70
2019-04-30T04:41:13.888Z,12.30
2019-04-30T04:43:45.964Z,11.50
2019-04-30T04:46:20.333Z,12.37
2019-04-30T04:48:51.203Z,11.60
2019-04-30T04:51:34.472Z,11.57
2019-04-30T04:53:56.459Z,12.33
2019-04-30T04:56:30.445Z,11.73
2019-04-30T04:59:01.672Z,11.90
2019-04-30T05:01:33.462Z,10.90
2019-04-30T05:04:05.627Z,11.70
2019-04-30T05:06:39.408Z,11.73
2019-04-30T05:09:10.917Z,11.97
2019-04-30T05:11:42.717Z,11.27
2019-04-30T05:14:14.491Z,11.87
2019-04-30T05:16:46.321Z,11.93
2019-04-30T05:19:18.647Z,12.30
2019-04-30T05:21:51.738Z,11.23
2019-04-30T05:24:23.567Z,11.13
2019-04-30T05:26:55.336Z,10.30
2019-04-30T05:29:28.795Z,11.37
2019-04-30T05:32:00.611Z,11.57
2019-04-30T05:34:32.383Z,11.57
2019-04-30T05:37:04.169Z,11.97
2019-04-30T05:39:35.944Z,11.70
2019-04-30T05:42:08.830Z,10.57
2019-04-30T05:44:40.809Z,11.47
2019-04-30T05:47:12.589Z,10.95
2019-04-30T05:49:44.348Z,10.23
2019-04-30T05:52:16.139Z,12.03
2019-04-30T05:54:48.866Z,10.77
2019-04-30T05:57:20.797Z,12.23
2019-04-30T05:59:52.593Z,11.17
2019-04-30T06:02:24.482Z,12.47
2019-04-30T06:04:56.392Z,10.65
2019-04-30T06:07:29.823Z,12.05
2019-04-30T06:10:25.208Z,11.28
2019-04-30T06:13:05.169Z,11.38
2019-04-30T06:15:53.025Z,11.00
2019-04-30T06:18:24.924Z,11.73
2019-04-30T06:20:56.725Z,11.40
2019-04-30T06:23:29.357Z,11.05
2019-04-30T06:26:09.725Z,11.78
2019-04-30T06:28:36.904Z,11.20
2019-04-30T06:31:09.101Z,11.08
2019-04-30T06:33:41.250Z,12.00
2019-04-30T06:36:13.447Z,11.90
2019-04-30T06:38:45.237Z,12.25
2019-04-30T06:41:17.516Z,12.20
2019-04-30T06:43:50.294Z,11.80
2019-04-30T06:46:22.112Z,11.22
2019-04-30T06:48:54.899Z,12.40
2019-04-30T06:51:26.689Z,12.33
2019-04-30T06:53:58.713Z,11.73
2019-04-30T06:56:32.011Z,11.45
2019-04-30T06:59:03.770Z,12.28
2019-04-30T07:01:35.600Z,12.25
2019-04-30T07:04:07.484Z,11.48
2019-04-30T07:06:43.900Z,10.72
2019-04-30T07:09:33.560Z,12.47
2019-04-30T07:12:25.554Z,11.45
2019-04-30T07:14:49.434Z,11.68
2019-04-30T07:17:21.904Z,12.63
2019-04-30T07:19:56.730Z,10.68
2019-04-30T07:22:39.403Z,11.50
2019-04-30T07:25:00.966Z,11.75
2019-04-30T07:27:32.852Z,11.35
2019-04-30T07:30:04.962Z,10.35
2019-04-30T07:32:38.696Z,10.70
2019-04-30T07:35:10.428Z,10.45
2019-04-30T07:37:42.205Z,10.25
2019-04-30T07:40:14.391Z,10.23
2019-04-30T07:42:46.157Z,10.15
2019-04-30T07:45:19.475Z,8.80
2019-04-30T07:47:51.580Z,10.00
2019-04-30T07:50:24.036Z,9.28
2019-04-30T07:53:04.775Z,9.93
2019-04-30T07:55:30.011Z,9.38
2019-04-30T07:58:01.793Z,8.80
2019-04-30T08:00:33.578Z,9.45
2019-04-30T08:03:31.267Z,9.35
2019-04-30T08:06:04.290Z,8.93
2019-04-30T08:08:37.194Z,8.98
2019-04-30T08:11:09.332Z,9.88
2019-04-30T08:13:43.315Z,8.08
2019-04-30T08:16:15.656Z,8.80
2019-04-30T08:18:49.238Z,9.05
2019-04-30T08:21:20.949Z,8.93
2019-04-30T08:23:52.718Z,9.03
2019-04-30T08:26:24.515Z,8.90
2019-04-30T08:28:56.517Z,8.85
2019-04-30T08:31:29.258Z,9.20
2019-04-30T08:34:02.563Z,8.83
2019-04-30T08:36:34.369Z,9.18
2019-04-30T08:39:09.664Z,9.30
2019-04-30T08:41:41.619Z,9.08
2019-04-30T08:44:13.744Z,9.80
2019-04-30T08:46:45.540Z,10.05
2019-04-30T08:49:19.247Z,10.43
2019-04-30T08:51:51.219Z,10.08
2019-04-30T08:54:23.527Z,9.23
2019-04-30T08:56:55.667Z,10.05
2019-04-30T08:59:29.472Z,8.90
2019-04-30T09:02:12.924Z,10.08
2019-04-30T09:04:35.279Z,10.53
2019-04-30T09:07:10.124Z,10.10
2019-04-30T09:09:40.938Z,9.10
2019-04-30T09:12:14.328Z,8.68
2019-04-30T09:14:48.869Z,9.33
2019-04-30T09:17:20.153Z,9.00
2019-04-30T09:19:52.032Z,9.75
2019-04-30T09:22:23.783Z,10.25
2019-04-30T09:24:55.896Z,9.23
2019-04-30T09:27:29.420Z,9.20
2019-04-30T09:30:01.588Z,8.85
2019-04-30T09:32:33.659Z,10.00
2019-04-30T09:35:06.137Z,8.70
2019-04-30T09:37:39.026Z,9.85
2019-04-30T09:40:17.957Z,9.90
2019-04-30T09:42:45.460Z,8.75
2019-04-30T09:45:18.712Z,8.93
2019-04-30T09:47:50.916Z,9.33
2019-04-30T09:50:22.893Z,9.38
2019-04-30T09:52:54.785Z,8.15
2019-04-30T09:55:28.918Z,8.55
2019-04-30T09:58:00.330Z,8.50
2019-04-30T10:00:32.088Z,7.70
2019-04-30T10:03:04.367Z,8.85
2019-04-30T10:05:36.477Z,8.45
2019-04-30T10:08:08.493Z,8.85
2019-04-30T10:10:49.595Z,9.23
2019-04-30T10:13:21.455Z,7.65
2019-04-30T10:16:09.778Z,8.58
2019-04-30T10:18:42.986Z,8.43
2019-04-30T10:21:14.836Z,8.20
2019-04-30T10:23:46.624Z,8.38
2019-04-30T10:26:18.759Z,8.35
2019-04-30T10:28:53.189Z,8.73
2019-04-30T10:31:25.447Z,8.13
2019-04-30T10:33:58.584Z,9.03
2019-04-30T10:36:32.005Z,7.95
2019-04-30T10:39:05.652Z,9.08
2019-04-30T10:41:39.500Z,8.03
2019-04-30T10:44:11.821Z,7.78
2019-04-30T10:46:43.714Z,7.50
2019-04-30T10:49:15.869Z,7.90
2019-04-30T10:51:47.631Z,7.50
2019-04-30T10:54:26.047Z,8.68
2019-04-30T10:56:52.946Z,7.58
2019-04-30T10:59:25.035Z,7.60
2019-04-30T11:01:56.810Z,7.40
2019-04-30T11:04:29.126Z,8.20
2019-04-30T11:07:00.961Z,8.13
2019-04-30T11:09:33.923Z,7.90
2019-04-30T11:12:06.766Z,7.97
2019-04-30T11:14:38.877Z,8.65
2019-04-30T11:17:11.144Z,7.95
2019-04-30T11:19:43.624Z,8.45
2019-04-30T11:22:15.878Z,7.75
2019-04-30T11:24:58.355Z,7.72
2019-04-30T11:27:22.365Z,8.03
2019-04-30T11:30:01.494Z,8.05
2019-04-30T11:32:28.631Z,8.25
2019-04-30T11:35:00.620Z,7.92
2019-04-30T11:37:32.547Z,7.92
2019-04-30T11:40:05.016Z,8.55
2019-04-30T11:42:36.837Z,8.50
2019-04-30T11:45:10.073Z,8.48
2019-04-30T11:47:53.072Z,8.45
2019-04-30T11:50:17.109Z,8.40
2019-04-30T11:52:49.041Z,9.40
2019-04-30T11:55:21.163Z,10.08
2019-04-30T11:57:52.970Z,9.45
2019-04-30T12:00:32.491Z,7.58
2019-04-30T12:03:04.385Z,8.25
2019-04-30T12:05:36.462Z,7.55
2019-04-30T12:08:14.732Z,8.40
2019-04-30T12:11:08.678Z,8.10
2019-04-30T12:13:40.541Z,8.25
2019-04-30T12:16:12.603Z,6.90
2019-04-30T12:18:44.443Z,8.25
2019-04-30T12:21:16.406Z,6.83
2019-04-30T12:23:48.188Z,6.95
2019-04-30T12:26:20.061Z,7.35
2019-04-30T12:28:53.100Z,8.40
2019-04-30T12:31:25.191Z,7.62
2019-04-30T12:33:57.029Z,7.62
2019-04-30T12:36:29.161Z,7.67
2019-04-30T12:39:01.021Z,6.90
2019-04-30T12:41:34.684Z,7.42
2019-04-30T12:44:06.649Z,7.30
2019-04-30T12:46:38.775Z,7.90
2019-04-30T12:49:12.670Z,7.28
2019-04-30T12:52:15.316Z,7.03
2019-04-30T12:54:54.543Z,7.20
2019-04-30T12:57:33.461Z,7.30
2019-04-30T13:00:09.314Z,7.60
2019-04-30T13:02:41.952Z,7.20
2019-04-30T13:05:14.838Z,6.90
2019-04-30T13:07:47.460Z,7.70
2019-04-30T13:10:21.633Z,7.25
2019-04-30T13:12:54.561Z,7.42
2019-04-30T13:15:26.701Z,7.42
2019-04-30T13:17:58.656Z,7.37
2019-04-30T13:20:31.592Z,7.80
2019-04-30T13:23:03.469Z,7.00
2019-04-30T13:25:35.745Z,7.08
2019-04-30T13:28:13.705Z,7.12
2019-04-30T13:30:45.513Z,7.30
2019-04-30T13:33:32.639Z,6.90
2019-04-30T13:36:04.541Z,6.95
2019-04-30T13:38:51.710Z,6.83
2019-04-30T13:41:51.083Z,7.25
2019-04-30T13:44:29.300Z,7.78
2019-04-30T13:47:01.068Z,7.35
2019-04-30T13:49:32.826Z,7.45
2019-04-30T13:52:04.772Z,7.12
2019-04-30T13:54:36.787Z,7.03
2019-04-30T13:57:09.145Z,7.03
2019-04-30T13:59:40.966Z,7.22
2019-04-30T14:02:13.121Z,6.20
2019-04-30T14:05:02.206Z,7.25
2019-04-30T14:08:05.520Z,7.12
2019-04-30T14:10:41.444Z,6.15
2019-04-30T14:13:13.535Z,6.67
2019-04-30T14:15:47.947Z,6.70
2019-04-30T14:18:28.568Z,6.85
2019-04-30T14:20:53.557Z,6.67
2019-04-30T14:23:25.405Z,6.83
2019-04-30T14:26:00.926Z,6.60
2019-04-30T14:28:30.953Z,6.95
2019-04-30T14:31:02.774Z,7.03
2019-04-30T14:33:34.681Z,7.00
2019-04-30T14:36:06.476Z,6.92
2019-04-30T14:38:40.503Z,6.78
2019-04-30T14:41:12.778Z,7.00
2019-04-30T14:43:50.920Z,6.92
2019-04-30T14:46:42.879Z,6.65
2019-04-30T14:49:35.973Z,6.60
2019-04-30T14:52:09.329Z,6.97
2019-04-30T14:54:52.496Z,7.50
2019-04-30T14:57:55.584Z,7.97
2019-04-30T15:00:41.442Z,7.30
2019-04-30T15:03:14.507Z,7.20
2019-04-30T15:05:49.398Z,7.55
2019-04-30T15:08:20.057Z,7.53
2019-04-30T15:10:51.941Z,7.40
2019-04-30T15:13:23.725Z,7.45
2019-04-30T15:15:55.558Z,7.15
2019-04-30T15:18:29.049Z,7.00
2019-04-30T15:21:00.970Z,7.40
2019-04-30T15:23:44.315Z,7.10
2019-04-30T15:26:22.174Z,6.80
2019-04-30T15:28:49.960Z,7.10
2019-04-30T15:31:22.829Z,7.50
2019-04-30T15:34:02.982Z,6.83
2019-04-30T15:36:33.722Z,7.12
2019-04-30T15:39:39.101Z,7.62
2019-04-30T15:42:12.131Z,7.53
2019-04-30T15:44:45.842Z,7.50
2019-04-30T15:47:18.922Z,7.65
2019-04-30T15:49:50.961Z,7.03
2019-04-30T15:52:22.878Z,6.87
2019-04-30T15:54:54.728Z,6.58
2019-04-30T15:57:26.632Z,7.15
2019-04-30T15:59:58.434Z,6.60
2019-04-30T16:02:56.350Z,6.25
2019-04-30T16:05:33.191Z,5.80
2019-04-30T16:08:36.195Z,6.78
2019-04-30T16:11:25.506Z,6.40
2019-04-30T16:14:14.367Z,6.37
2019-04-30T16:16:51.497Z,6.47
2019-04-30T16:19:24.551Z,6.92
2019-04-30T16:21:56.592Z,6.67
2019-04-30T16:24:28.866Z,6.20
2019-04-30T16:27:01.031Z,6.20
2019-04-30T16:29:33.072Z,6.33
2019-04-30T16:32:05.234Z,6.47
2019-04-30T16:34:39.014Z,8.00
2019-04-30T16:37:10.929Z,9.65
2019-04-30T16:39:42.952Z,8.23
2019-04-30T16:42:14.861Z,9.20
2019-04-30T16:44:46.913Z,9.90
2019-04-30T16:47:19.906Z,9.00
2019-04-30T16:49:52.501Z,8.30
2019-04-30T16:52:24.358Z,8.63
2019-04-30T16:54:56.153Z,7.60
2019-04-30T16:57:30.181Z,8.50
2019-04-30T17:00:01.529Z,8.80
2019-04-30T17:02:34.867Z,8.65
2019-04-30T17:05:19.805Z,10.43
2019-04-30T17:08:09.446Z,8.40
2019-04-30T17:10:50.522Z,7.55
2019-04-30T17:13:41.229Z,8.68
2019-04-30T17:16:16.592Z,7.85
2019-04-30T17:18:49.918Z,7.90
2019-04-30T17:21:22.070Z,10.45
2019-04-30T17:23:53.870Z,8.25
2019-04-30T17:26:25.744Z,8.98
2019-04-30T17:28:59.738Z,8.95
2019-04-30T17:31:31.564Z,8.13
2019-04-30T17:34:03.418Z,8.33
2019-04-30T17:36:35.307Z,9.45
2019-04-30T17:39:11.989Z,8.63
2019-04-30T17:41:44.027Z,9.60
2019-04-30T17:44:15.833Z,8.40
2019-04-30T17:46:50.221Z,9.90
2019-04-30T17:49:22.180Z,9.35
2019-04-30T17:51:54.253Z,8.68
2019-04-30T17:54:26.193Z,8.08
2019-04-30T17:56:58.031Z,9.23
2019-04-30T17:59:29.843Z,9.48
2019-04-30T18:02:03.986Z,8.73
2019-04-30T18:04:35.994Z,8.78
2019-04-30T18:07:09.911Z,8.15
2019-04-30T18:09:41.575Z,7.72
2019-04-30T18:12:13.526Z,7.92
2019-04-30T18:14:45.477Z,8.63
2019-04-30T18:17:17.496Z,12.43
2019-04-30T18:20:06.811Z,13.25
2019-04-30T18:22:53.333Z,12.63
2019-04-30T18:25:33.761Z,10.45
2019-04-30T18:28:05.771Z,12.33
2019-04-30T18:30:39.120Z,10.05
2019-04-30T18:33:11.517Z,8.85
2019-04-30T18:35:43.585Z,8.78
2019-04-30T18:38:17.732Z,8.50
2019-04-30T18:40:50.450Z,8.70
2019-04-30T18:43:22.675Z,8.25
2019-04-30T18:45:54.458Z,8.98
2019-04-30T18:48:29.388Z,8.90
2019-04-30T18:51:01.111Z,8.70
2019-04-30T18:53:34.830Z,10.18
2019-04-30T18:56:12.190Z,9.25
2019-04-30T18:58:43.116Z,9.93
2019-04-30T19:01:14.377Z,10.08
2019-04-30T19:03:46.317Z,9.25
2019-04-30T19:06:26.073Z,9.03
2019-04-30T19:09:29.664Z,7.80
2019-04-30T19:12:12.371Z,8.40
2019-04-30T19:15:03.339Z,9.08
2019-04-30T19:18:12.128Z,8.35
2019-04-30T19:20:46.823Z,7.70
2019-04-30T19:23:19.099Z,7.70
2019-04-30T19:25:51.258Z,8.38
2019-04-30T19:28:23.029Z,7.75
2019-04-30T19:30:58.116Z,8.05
2019-04-30T19:33:30.790Z,7.25
2019-04-30T19:36:02.260Z,7.70
2019-04-30T19:38:34.081Z,7.28
2019-04-30T19:41:06.183Z,9.35
2019-04-30T19:43:39.111Z,8.13
2019-04-30T19:46:11.850Z,9.20
2019-04-30T19:48:44.060Z,8.80
2019-04-30T19:51:16.149Z,9.38
2019-04-30T19:53:49.014Z,8.93
2019-04-30T19:56:21.642Z,9.78
2019-04-30T19:59:01.970Z,9.73
2019-04-30T20:01:28.699Z,10.00
2019-04-30T20:04:01.573Z,10.08
2019-04-30T20:06:34.815Z,9.28
2019-04-30T20:09:08.937Z,9.93
2019-04-30T20:11:43.993Z,9.83
2019-04-30T20:14:16.044Z,9.63
2019-04-30T20:16:48.683Z,10.32
2019-04-30T20:19:20.897Z,10.15
2019-04-30T20:21:53.934Z,9.65
2019-04-30T20:24:25.898Z,9.55
2019-04-30T20:27:06.393Z,9.33
2019-04-30T20:29:33.744Z,9.30
2019-04-30T20:32:05.851Z,9.88
2019-04-30T20:34:39.200Z,8.88
2019-04-30T20:37:12.518Z,9.15
2019-04-30T20:39:50.576Z,9.58
2019-04-30T20:42:23.698Z,9.75
2019-04-30T20:44:55.667Z,10.00
2019-04-30T20:47:30.042Z,10.08
2019-04-30T20:50:01.792Z,9.45
2019-04-30T20:52:33.947Z,9.93
2019-04-30T20:55:06.163Z,10.15
2019-04-30T20:57:39.648Z,11.00
2019-04-30T21:00:12.660Z,9.90
2019-04-30T21:02:44.623Z,10.35
2019-04-30T21:05:16.466Z,10.13
2019-04-30T21:07:48.732Z,9.60
2019-04-30T21:10:21.124Z,10.68
2019-04-30T21:12:53.051Z,9.80
2019-04-30T21:15:25.784Z,9.57
2019-04-30T21:17:58.726Z,9.33
2019-04-30T21:20:32.284Z,9.83
2019-04-30T21:23:04.701Z,9.13
2019-04-30T21:25:38.589Z,9.97
2019-04-30T21:28:10.108Z,9.77
2019-04-30T21:30:42.040Z,10.30
2019-04-30T21:33:38.492Z,9.53
2019-04-30T21:36:19.332Z,10.20
2019-04-30T21:38:51.316Z,10.27
2019-04-30T21:41:23.195Z,10.07
2019-04-30T21:43:55.023Z,9.00
2019-04-30T21:46:29.353Z,10.90
2019-04-30T21:49:01.657Z,10.17
2019-04-30T21:51:33.446Z,9.33
2019-04-30T21:54:05.312Z,9.43
2019-04-30T21:56:37.885Z,10.13
2019-04-30T21:59:09.769Z,10.00
2019-04-30T22:01:43.211Z,10.57
2019-04-30T22:04:16.024Z,10.63
2019-04-30T22:06:49.487Z,11.13
2019-04-30T22:09:21.834Z,13.57
2019-04-30T22:11:53.587Z,10.83
2019-04-30T22:14:25.694Z,11.90
2019-04-30T22:16:59.277Z,13.67
2019-04-30T22:19:32.316Z,13.57
2019-04-30T22:22:04.471Z,13.80
2019-04-30T22:24:38.755Z,14.43
2019-04-30T22:27:10.282Z,14.00
2019-04-30T22:29:42.413Z,13.20
2019-04-30T22:32:14.830Z,14.67
2019-04-30T22:34:47.270Z,14.00
2019-04-30T22:37:19.527Z,14.50
2019-04-30T22:39:59.383Z,16.07
2019-04-30T22:42:34.029Z,15.77
2019-04-30T22:45:38.266Z,15.40
2019-04-30T22:48:11.033Z,14.97
2019-04-30T22:50:42.924Z,16.00
2019-04-30T22:53:14.727Z,15.43
2019-04-30T22:55:46.802Z,15.20
2019-04-30T22:58:18.613Z,15.10
2019-04-30T23:00:52.274Z,15.97
2019-04-30T23:03:32.160Z,14.30
2019-04-30T23:06:04.136Z,15.63
2019-04-30T23:08:35.980Z,15.90
2019-04-30T23:11:08.165Z,15.37
2019-04-30T23:13:39.942Z,15.53
2019-04-30T23:16:13.380Z,14.93
2019-04-30T23:18:45.241Z,15.30
2019-04-30T23:21:17.307Z,15.53
2019-04-30T23:23:49.599Z,14.40
2019-04-30T23:26:22.420Z,16.23
2019-04-30T23:28:54.173Z,14.20
2019-04-30T23:31:26.099Z,14.77
2019-04-30T23:33:58.125Z,15.00
2019-04-30T23:36:30.793Z,14.80
2019-04-30T23:39:02.595Z,15.60
2019-04-30T23:41:37.600Z,14.70
2019-04-30T23:44:09.560Z,14.33
2019-04-30T23:46:41.411Z,14.60
2019-04-30T23:49:13.447Z,14.50
2019-04-30T23:54:22.609Z,13.27
2019-04-30T23:56:54.356Z,13.70
2019-04-30T23:59:26.372Z,13.57
